• Join FlightAware (Why Join?)
  • Login
  • US Flag 
07:28AM EDT


 

Airport Tracker/Info


-or-


 

Live Flight TrackerFlight Track Log ✈ N240ER ✈ 02-May-2013 ✈ KMEM - KPTK

Flight Track Log - Related Links

Times and Time Zones

All times are in EDT time to prevent confusion due to time zone crossing. See the N240ER flight status page for this flight to view local times or setup timezone preferences in your user account.

Time Position Orientation Groundspeed Altitude Reporting Facility
EDT Latitude Longitude Course Direction KTS MPH feet Rate Location/Type
08:47PM 35.0667 -89.9833 270° West 111 128 800  Level KMEM
08:48PM 35.0667 -90.0000 270° West 125 144 1,400 1,020 Climbing KMEM
08:49PM 35.1000 -89.9833 22° Northeast 124 143 2,400 780 Climbing KMEM
08:50PM 35.1167 -89.9500 59° Northeast 157 181 2,900 240 Climbing KMEM
08:51PM 35.1667 -89.9000 39° Northeast 197 227 2,900 660 Level KMEM
08:52PM 35.2167 -89.8500 39° Northeast 150 173 4,600 1,260 Climbing KMEM
08:53PM 35.2500 -89.8167 39° Northeast 160 184 5,800 1,200 Climbing KMEM
08:54PM 35.2833 -89.7833 39° Northeast 163 188 6,900 540 Climbing KMEM
08:55PM 35.3333 -89.7500 29° Northeast 214 246 6,900 120 Level KMEM
08:56PM 35.3667 -89.7167 39° Northeast 220 253 7,200 900 Climbing KMEM
08:57PM 35.4061 -89.6872 31° Northeast 208 239 8,500 1,200 Climbing Memphis Center
08:58PM 35.4539 -89.6536 30° Northeast 196 226 9,600 1,140 Climbing Memphis Center
08:59PM 35.4975 -89.6225 30° Northeast 181 208 10,800 1,140 Climbing Memphis Center
09:00PM 35.5411 -89.5917 30° Northeast 181 208 11,900 1,140 Climbing Memphis Center
09:01PM 35.5867 -89.5631 27° Northeast 181 208 13,100 1,020 Climbing Memphis Center
09:02PM 35.6325 -89.5294 31° Northeast 181 208 14,000 540 Climbing Memphis Center
09:03PM 35.6864 -89.4906 30° Northeast 199 229 14,200 900 Climbing Memphis Center
09:04PM 35.7258 -89.4569 35° Northeast 194 223 15,800 1,320 Climbing Memphis Center
09:05PM 35.7733 -89.4206 32° Northeast 189 217 16,900 960 Climbing Memphis Center
09:06PM 35.8192 -89.3867 31° Northeast 189 217 17,800 900 Climbing Memphis Center
09:07PM 35.8667 -89.3528 30° Northeast 189 217 18,800 900 Climbing Memphis Center
09:08PM 35.9144 -89.3164 32° Northeast 189 217 19,700 900 Climbing Memphis Center
09:09PM 35.9619 -89.2825 30° Northeast 189 217 20,600 900 Climbing Memphis Center
09:10PM 36.0097 -89.2433 34° Northeast 194 223 21,500 840 Climbing Memphis Center
09:11PM 36.0594 -89.2067 31° Northeast 194 223 22,300 720 Climbing Memphis Center
09:12PM 36.1111 -89.1675 31° Northeast 205 236 23,000 720 Climbing Memphis Center
09:13PM 36.1650 -89.1256 32° Northeast 211 243 23,800 780 Climbing Memphis Center
09:14PM 36.2186 -89.0836 32° Northeast 211 243 24,600 600 Climbing Memphis Center
09:15PM 36.2744 -89.0414 31° Northeast 216 249 25,000 240 Climbing Memphis Center
09:16PM 36.3325 -88.9967 32° Northeast 244 281 25,100 600 Climbing Memphis Center
09:17PM 36.3925 -88.9544 30° Northeast 249 287 26,300 900 Climbing Memphis Center
09:18PM 36.4483 -88.9122 31° Northeast 249 287 27,000 300 Climbing Memphis Center
09:19PM 36.5122 -88.8647 31° Northeast 249 287 27,000  Level Memphis Center
09:20PM 36.5764 -88.8144 32° Northeast 260 299 27,000  Level Memphis Center
09:21PM 36.6444 -88.7639 31° Northeast 271 312 27,000  Level Memphis Center
09:22PM 36.7125 -88.7133 31° Northeast 271 312 27,000  Level Memphis Center
09:23PM 36.7806 -88.6628 31° Northeast 276 318 27,000  Level Memphis Center
09:24PM 36.8486 -88.6094 32° Northeast 276 318 27,000  Level Memphis Center
09:25PM 36.9167 -88.5561 32° Northeast 276 318 27,000  Level Memphis Center
09:26PM 36.9825 -88.5053 32° Northeast 276 318 27,000  Level Memphis Center
09:27PM 37.0486 -88.4544 32° Northeast 276 318 27,000  Level Memphis Center
09:28PM 37.1144 -88.4058 30° Northeast 276 318 27,000  Level Memphis Center
09:29PM 37.2078 -88.3258 34° Northeast 274 315 27,000  Level Indianapolis Center
09:30PM 37.2850 -88.2658 32° Northeast 277 319 27,000  Level Indianapolis Center
09:31PM 37.3508 -88.2150 32° Northeast 276 318 27,000  Level Indianapolis Center
09:32PM 37.4156 -88.1631 33° Northeast 275 316 27,000  Level Indianapolis Center
09:33PM 37.4814 -88.1119 32° Northeast 275 316 27,000  Level Indianapolis Center
09:35PM 37.5461 -88.0608 32° Northeast 274 315 27,000  Level Indianapolis Center
09:36PM 37.6108 -88.0094 32° Northeast 272 313 27,000  Level Indianapolis Center
09:37PM 37.6764 -87.9564 33° Northeast 275 316 27,000  Level Indianapolis Center
09:38PM 37.7411 -87.9058 32° Northeast 273 314 27,000  Level Indianapolis Center
09:39PM 37.8131 -87.8478 33° Northeast 275 316 27,000  Level Indianapolis Center
09:40PM 37.8769 -87.7969 32° Northeast 271 312 27,000  Level Indianapolis Center
09:41PM 37.9422 -87.7453 32° Northeast 274 315 27,000  Level Indianapolis Center
09:42PM 38.0064 -87.6939 32° Northeast 273 314 27,000  Level Indianapolis Center
09:43PM 38.0700 -87.6428 32° Northeast 270 311 27,000  Level Indianapolis Center
09:44PM 38.1336 -87.5936 31° Northeast 266 306 27,000  Level Indianapolis Center
09:45PM 38.1969 -87.5411 33° Northeast 268 308 27,000  Level Indianapolis Center
09:46PM 38.2611 -87.4900 32° Northeast 271 312 27,000  Level Indianapolis Center
09:47PM 38.3256 -87.4383 32° Northeast 270 311 27,000  Level Indianapolis Center
09:48PM 38.3894 -87.3867 32° Northeast 270 311 27,000  Level Indianapolis Center
09:49PM 38.4536 -87.3331 33° Northeast 272 313 27,000  Level Indianapolis Center
09:50PM 38.5178 -87.2808 32° Northeast 271 312 27,000  Level Indianapolis Center
09:51PM 38.5819 -87.2283 33° Northeast 271 312 27,000  Level Indianapolis Center
09:52PM 38.6589 -87.1658 32° Northeast 270 311 27,000  Level Indianapolis Center
09:53PM 38.7228 -87.1133 33° Northeast 270 311 27,000  Level Indianapolis Center
09:54PM 38.7872 -87.0617 32° Northeast 272 313 27,000  Level Indianapolis Center
09:55PM 38.8503 -87.0092 33° Northeast 270 311 27,000  Level Indianapolis Center
09:56PM 38.9136 -86.9567 33° Northeast 269 310 27,000  Level Indianapolis Center
09:57PM 38.9772 -86.9047 32° Northeast 270 311 27,000  Level Indianapolis Center
09:58PM 39.0397 -86.8517 33° Northeast 268 308 27,000  Level Indianapolis Center
09:59PM 39.1036 -86.8000 32° Northeast 269 310 27,000  Level Indianapolis Center
10:00PM 39.1633 -86.7497 33° Northeast 265 305 27,000  Level Indianapolis Center
10:01PM 39.2272 -86.6978 32° Northeast 270 311 27,000  Level Indianapolis Center
10:02PM 39.3025 -86.6339 33° Northeast 271 312 27,000  Level Indianapolis Center
10:03PM 39.3647 -86.5819 33° Northeast 268 308 27,000  Level Indianapolis Center
10:04PM 39.4267 -86.5297 33° Northeast 267 307 27,000  Level Indianapolis Center
10:05PM 39.4892 -86.4775 33° Northeast 268 308 27,000  Level Indianapolis Center
10:06PM 39.5508 -86.4253 33° Northeast 266 306 27,000  Level Indianapolis Center
10:07PM 39.6133 -86.3719 33° Northeast 269 310 27,000  Level Indianapolis Center
10:08PM 39.6761 -86.3186 33° Northeast 270 311 27,000  Level Indianapolis Center
10:09PM 39.7456 -86.2592 33° Northeast 271 312 27,000  Level Indianapolis Center
10:10PM 39.8094 -86.2067 32° Northeast 271 312 27,000  Level Indianapolis Center
10:11PM 39.8714 -86.1525 34° Northeast 271 312 27,000  Level Indianapolis Center
10:12PM 39.9319 -86.1011 33° Northeast 263 303 27,000  Level Indianapolis Center
10:13PM 39.9942 -86.0472 34° Northeast 268 308 27,000  Level Indianapolis Center
10:14PM 40.0556 -85.9947 33° Northeast 266 306 27,000  Level Indianapolis Center
10:15PM 40.1306 -85.9297 34° Northeast 269 310 27,000  Level Indianapolis Center
10:16PM 40.1689 -85.8972 33° Northeast 272 313 27,000  Level Chicago Center
10:17PM 40.2306 -85.8442 33° Northeast 267 307 27,000  Level Chicago Center
10:18PM 40.2931 -85.7892 34° Northeast 270 311 27,000  Level Chicago Center
10:19PM 40.3544 -85.7364 33° Northeast 266 306 27,000  Level Chicago Center
10:20PM 40.4167 -85.6811 34° Northeast 270 311 27,000  Level Chicago Center
10:21PM 40.4800 -85.6272 33° Northeast 271 312 27,000  Level Chicago Center
10:22PM 40.5425 -85.5728 33° Northeast 270 311 27,000 -360 Level Chicago Center
10:23PM 40.6186 -85.5047 34° Northeast 278 320 26,300 -780 Descending Chicago Center
10:24PM 40.6814 -85.4425 37° Northeast 295 339 25,500 -900 Descending Chicago Center
10:25PM 40.7472 -85.3792 36° Northeast 295 339 24,500 -1,080 Descending Chicago Center
10:26PM 40.8119 -85.3131 38° Northeast 295 339 23,400 -1,080 Descending Chicago Center
10:27PM 40.8750 -85.2489 38° Northeast 291 335 22,400 -1,080 Descending Chicago Center
10:28PM 40.9461 -85.1786 37° Northeast 273 314 21,200 -1,080 Descending Chicago Center
10:29PM 41.0064 -85.1203 36° Northeast 270 311 20,200 -960 Descending Chicago Center
10:30PM 41.0642 -85.0611 38° Northeast 266 306 19,300 -600 Descending Chicago Center
10:31PM 41.1172 -85.0097 36° Northeast 247 284 19,000 -180 Descending Chicago Center
10:33PM 41.1725 -84.9539 37° Northeast 248 285 19,000  Level Chicago Center
10:34PM 41.2308 -84.8967 36° Northeast 259 298 19,000  Level Chicago Center
10:35PM 41.2989 -84.8281 37° Northeast 258 297 19,000  Level Chicago Center
10:36PM 41.3572 -84.7703 37° Northeast 263 303 19,000 -480 Level Chicago Center
10:37PM 41.4131 -84.7131 38° Northeast 256 295 18,100 -840 Descending Chicago Center
10:38PM 41.4672 -84.6578 37° Northeast 249 287 17,300 -900 Descending Chicago Center
10:38PM 41.5158 -84.6131 35° Northeast 256 295 16,500 -1,020 Descending Cleveland Center
10:39PM 41.5719 -84.5553 38° Northeast 256 295 15,500 -960 Descending Cleveland Center
10:40PM 41.6242 -84.5003 38° Northeast 251 289 14,600 -960 Descending Cleveland Center
10:41PM 41.6781 -84.4478 36° Northeast 246 283 13,600 -1,080 Descending Cleveland Center
10:42PM 41.7297 -84.3953 37° Northeast 241 277 12,500 -1,020 Descending Cleveland Center
10:43PM 41.7794 -84.3453 37° Northeast 229 264 11,600 -960 Descending Cleveland Center
10:44PM 41.8225 -84.2978 39° Northeast 216 249 10,600 -900 Descending Cleveland Center
10:45PM 41.8678 -84.2528 37° Northeast 223 257 10,000 -360 Descending Cleveland Center
10:46PM 41.9175 -84.2000 38° Northeast 227 261 10,000  Level Cleveland Center
10:47PM 41.9669 -84.1497 37° Northeast 227 261 10,000 -180 Level Cleveland Center
10:48PM 42.0308 -84.1114 24° Northeast 233 268 9,700 -720 Descending Cleveland Center
10:49PM 42.0922 -84.0783 22° Northeast 222 255 8,600 -1,080 Descending Cleveland Center
10:51PM 42.1394 -84.0306 37° Northeast 204 235 7,500 -1,020 Descending Cleveland Center
10:52PM 42.1847 -83.9797 40° Northeast 202 232 6,500 -780 Descending Cleveland Center
10:53PM 42.2281 -83.9286 41° Northeast 210 242 6,000 -300 Descending Cleveland Center
10:54PM 42.2711 -83.8775 41° Northeast 212 244 6,000  Level Cleveland Center
10:54PM 42.3078 -83.8403 37° Northeast 210 242 6,000 -480 Level Cleveland Center
10:55PM 42.3508 -83.7864 43° Northeast 211 243 5,200 -600 Descending Cleveland Center
10:56PM 42.3961 -83.7378 38° Northeast 211 243 4,800 -300 Descending Cleveland Center
10:58PM 42.4522 -83.6703 42° Northeast 211 243 4,600 -360 Descending Cleveland Center
10:59PM 42.5014 -83.6247 34° Northeast 217 250 4,100 -780 Descending Cleveland Center
11:00PM 42.5564 -83.5881 26° Northeast 212 244 3,100 -660 Descending Cleveland Center
11:01PM 42.6031 -83.5592 24° Northeast 188 216 2,800 -360 Descending Cleveland Center
11:02PM 42.6450 -83.5472 12° North 158 182 2,400 -420 Descending Cleveland Center
11:03PM 42.6625 -83.5169 52° Northeast 90 104 2,100 -360 Descending Cleveland Center
11:04PM 42.6633 -83.4858 88° East 66 76 1,800 -420 Descending Cleveland Center
11:04PM 42.6639 -83.4606 88° East 75 86 1,400 -480 Descending Cleveland Center